createdAt,value
2018-01-18T00:01:51.511Z,79.40
2018-01-18T00:04:18.939Z,78.20
2018-01-18T00:06:46.384Z,77.90
2018-01-18T00:09:13.823Z,79.60
2018-01-18T00:11:41.260Z,77.80
2018-01-18T00:14:08.703Z,79.60
2018-01-18T00:16:36.143Z,83.40
2018-01-18T00:19:03.583Z,86.30
2018-01-18T00:21:31.025Z,86.80
2018-01-18T00:23:58.496Z,87.70
2018-01-18T00:26:25.943Z,89.00
2018-01-18T00:28:53.411Z,89.20
2018-01-18T00:31:20.879Z,88.70
2018-01-18T00:33:48.317Z,88.70
2018-01-18T00:36:15.771Z,88.70
2018-01-18T00:38:43.199Z,88.50
2018-01-18T00:41:10.654Z,89.50
2018-01-18T00:43:38.071Z,89.80
2018-01-18T00:46:05.516Z,89.30
2018-01-18T00:48:34.972Z,88.60
2018-01-18T00:51:02.422Z,88.50
2018-01-18T00:53:29.863Z,89.30
2018-01-18T00:55:57.351Z,88.80
2018-01-18T00:58:24.792Z,88.20
2018-01-18T01:00:52.300Z,88.20
2018-01-18T01:03:19.848Z,86.30
2018-01-18T01:05:47.366Z,86.10
2018-01-18T01:08:14.807Z,83.50
2018-01-18T01:10:42.401Z,83.40
2018-01-18T01:13:09.844Z,84.00
2018-01-18T01:15:37.267Z,82.90
2018-01-18T01:18:04.715Z,81.80
2018-01-18T01:20:32.140Z,80.70
2018-01-18T01:22:59.592Z,82.10
2018-01-18T01:25:27.027Z,78.70
2018-01-18T01:27:54.591Z,79.90
2018-01-18T01:30:22.364Z,78.80
2018-01-18T01:32:49.796Z,78.40
2018-01-18T01:35:17.220Z,77.10
2018-01-18T01:37:44.675Z,77.10
2018-01-18T01:40:12.188Z,77.30
2018-01-18T01:42:39.633Z,75.80
2018-01-18T01:45:07.084Z,75.80
2018-01-18T01:47:34.507Z,75.80
2018-01-18T01:50:01.964Z,75.70
2018-01-18T01:52:29.474Z,75.00
2018-01-18T01:54:57.260Z,75.30
2018-01-18T01:57:24.700Z,75.20
2018-01-18T01:59:52.144Z,75.90
2018-01-18T02:02:19.586Z,75.20
2018-01-18T02:04:47.032Z,74.10
2018-01-18T02:07:14.455Z,73.60
2018-01-18T02:09:41.900Z,73.70
2018-01-18T02:12:09.334Z,73.70
2018-01-18T02:14:36.894Z,73.90
2018-01-18T02:17:04.344Z,74.30
2018-01-18T02:19:31.807Z,73.50
2018-01-18T02:21:59.258Z,73.60
2018-01-18T02:24:26.724Z,74.10
2018-01-18T02:26:54.156Z,73.80
2018-01-18T02:29:21.600Z,73.60
2018-01-18T02:31:49.047Z,73.50
2018-01-18T02:34:16.480Z,74.10
2018-01-18T02:36:43.939Z,73.50
2018-01-18T02:39:11.466Z,74.20
2018-01-18T02:41:38.925Z,74.20
2018-01-18T02:44:06.374Z,73.80
2018-01-18T02:46:33.806Z,73.70
2018-01-18T02:49:01.248Z,73.00
2018-01-18T02:51:28.684Z,73.60
2018-01-18T02:53:56.135Z,73.70
2018-01-18T02:56:23.575Z,73.20
2018-01-18T02:58:51.009Z,73.40
2018-01-18T03:01:18.488Z,73.30
2018-01-18T03:03:45.944Z,73.50
2018-01-18T03:06:14.415Z,72.70
2018-01-18T03:08:41.868Z,72.50
2018-01-18T03:11:09.296Z,73.10
2018-01-18T03:13:36.741Z,73.10
2018-01-18T03:16:04.172Z,72.90
2018-01-18T03:18:31.615Z,72.70
2018-01-18T03:20:59.045Z,73.00
2018-01-18T03:23:26.488Z,73.10
2018-01-18T03:25:53.987Z,72.80
2018-01-18T03:28:21.485Z,74.00
2018-01-18T03:30:48.924Z,73.80
2018-01-18T03:33:16.372Z,73.30
2018-01-18T03:35:43.815Z,73.80
2018-01-18T03:38:11.252Z,75.30
2018-01-18T03:40:38.689Z,75.60
2018-01-18T03:43:06.212Z,75.90
2018-01-18T03:45:33.640Z,75.90
2018-01-18T03:48:01.073Z,75.40
2018-01-18T03:50:28.595Z,74.70
2018-01-18T03:52:56.811Z,74.80
2018-01-18T03:55:24.436Z,74.70
2018-01-18T03:57:51.941Z,75.40
2018-01-18T04:00:19.420Z,75.50
2018-01-18T04:02:46.851Z,75.30
2018-01-18T04:05:15.228Z,75.50
2018-01-18T04:07:42.684Z,75.20
2018-01-18T04:10:10.135Z,75.30
2018-01-18T04:12:37.566Z,75.30
2018-01-18T04:15:05.012Z,75.40
2018-01-18T04:17:32.455Z,75.30
2018-01-18T04:19:59.892Z,75.00
2018-01-18T04:22:27.336Z,75.20
2018-01-18T04:24:54.800Z,74.50
2018-01-18T04:27:22.244Z,74.00
2018-01-18T04:29:49.677Z,74.00
2018-01-18T04:32:17.175Z,73.40
2018-01-18T04:34:44.655Z,73.10
2018-01-18T04:37:12.104Z,72.30
2018-01-18T04:39:39.536Z,73.00
2018-01-18T04:42:07.011Z,73.40
2018-01-18T04:44:34.545Z,72.60
2018-01-18T04:47:02.004Z,73.00
2018-01-18T04:49:29.683Z,73.20
2018-01-18T04:51:57.767Z,72.80
2018-01-18T04:54:25.200Z,73.30
2018-01-18T04:56:52.675Z,73.00
2018-01-18T04:59:20.104Z,73.10
2018-01-18T05:01:47.670Z,73.50
2018-01-18T05:04:15.096Z,72.50
2018-01-18T05:06:42.528Z,73.10
2018-01-18T05:09:09.964Z,73.00
2018-01-18T05:11:37.400Z,73.10
2018-01-18T05:14:04.848Z,73.10
2018-01-18T05:16:32.364Z,73.20
2018-01-18T05:18:59.803Z,72.80
2018-01-18T05:21:27.232Z,72.50
2018-01-18T05:23:54.675Z,72.70
2018-01-18T05:26:22.131Z,73.20
2018-01-18T05:28:49.556Z,73.60
2018-01-18T05:31:17.009Z,74.20
2018-01-18T05:33:45.216Z,75.90
2018-01-18T05:36:12.651Z,75.90
2018-01-18T05:38:40.100Z,76.50
2018-01-18T05:41:07.543Z,76.40
2018-01-18T05:43:34.983Z,77.10
2018-01-18T05:46:02.415Z,77.40
2018-01-18T05:48:29.865Z,77.50
2018-01-18T05:50:57.296Z,77.90
2018-01-18T05:53:24.735Z,78.10
2018-01-18T05:55:52.175Z,78.80
2018-01-18T05:58:20.404Z,78.60
2018-01-18T06:00:47.833Z,78.50
2018-01-18T06:03:15.280Z,78.00
2018-01-18T06:05:42.721Z,77.90
2018-01-18T06:08:10.249Z,78.30
2018-01-18T06:10:37.704Z,78.00
2018-01-18T06:13:05.156Z,77.20
2018-01-18T06:15:32.587Z,77.00
2018-01-18T06:18:00.072Z,76.70
2018-01-18T06:20:27.516Z,76.00
2018-01-18T06:22:54.980Z,76.30
2018-01-18T06:25:22.416Z,76.20
2018-01-18T06:27:49.895Z,75.30
2018-01-18T06:30:17.348Z,73.90
2018-01-18T06:32:44.794Z,72.50
2018-01-18T06:35:12.224Z,72.30
2018-01-18T06:37:39.640Z,71.10
2018-01-18T06:40:07.216Z,71.00
2018-01-18T06:42:34.655Z,70.50
2018-01-18T06:45:02.085Z,71.00
2018-01-18T06:47:29.551Z,71.30
2018-01-18T06:49:57.008Z,70.70
2018-01-18T06:52:24.458Z,70.90
2018-01-18T06:54:51.892Z,70.10
2018-01-18T06:57:19.340Z,70.70
2018-01-18T06:59:46.787Z,70.90
2018-01-18T07:02:14.228Z,71.90
2018-01-18T07:04:41.672Z,71.70
2018-01-18T07:07:09.158Z,71.70
2018-01-18T07:09:36.680Z,71.70
2018-01-18T07:12:04.104Z,70.90
2018-01-18T07:14:31.583Z,71.20
2018-01-18T07:16:59.656Z,70.30
2018-01-18T07:19:27.108Z,70.30
2018-01-18T07:21:54.582Z,70.50
2018-01-18T07:24:22.023Z,69.30
2018-01-18T07:26:49.431Z,68.80
2018-01-18T07:29:16.907Z,68.80
2018-01-18T07:31:44.358Z,68.80
2018-01-18T07:34:11.855Z,68.30
2018-01-18T07:36:39.311Z,67.90
2018-01-18T07:39:06.740Z,67.40
2018-01-18T07:41:34.187Z,67.00
2018-01-18T07:44:01.680Z,67.30
2018-01-18T07:46:29.095Z,66.10
2018-01-18T07:48:56.519Z,66.50
2018-01-18T07:51:24.060Z,64.20
2018-01-18T07:53:57.227Z,64.50
2018-01-18T07:56:24.671Z,63.60
2018-01-18T07:58:52.096Z,63.50
2018-01-18T08:01:19.548Z,62.70
2018-01-18T08:03:52.571Z,64.10
2018-01-18T08:06:20.016Z,62.80
2018-01-18T08:08:47.440Z,62.30
2018-01-18T08:11:14.871Z,61.60
2018-01-18T08:13:42.498Z,61.20
2018-01-18T08:16:09.945Z,60.70
2018-01-18T08:18:37.372Z,60.80
2018-01-18T08:21:04.820Z,61.20
2018-01-18T08:23:32.263Z,61.00
2018-01-18T08:25:59.697Z,61.30
2018-01-18T08:28:27.169Z,61.60
2018-01-18T08:30:54.631Z,61.90
2018-01-18T08:33:22.076Z,62.30
2018-01-18T08:35:49.604Z,63.30
2018-01-18T08:38:17.044Z,63.50
2018-01-18T08:40:44.488Z,64.00
2018-01-18T08:43:11.917Z,64.70
2018-01-18T08:45:39.369Z,66.00
2018-01-18T08:48:06.816Z,66.00
2018-01-18T08:50:34.260Z,67.00
2018-01-18T08:53:01.688Z,67.90
2018-01-18T08:55:29.140Z,67.70
2018-01-18T08:57:56.556Z,67.80
2018-01-18T09:00:24.000Z,68.10
2018-01-18T09:02:51.441Z,67.50
2018-01-18T09:05:18.860Z,66.90
2018-01-18T09:07:46.310Z,66.50
2018-01-18T09:10:13.767Z,65.90
2018-01-18T09:12:41.405Z,65.40
2018-01-18T09:15:08.837Z,65.00
2018-01-18T09:17:36.382Z,64.50
2018-01-18T09:20:04.574Z,63.50
2018-01-18T09:22:32.016Z,63.30
2018-01-18T09:24:59.611Z,63.20
2018-01-18T09:27:27.052Z,62.40
2018-01-18T09:29:54.489Z,62.20
2018-01-18T09:32:22.703Z,62.00
2018-01-18T09:34:50.162Z,61.90
2018-01-18T09:37:17.604Z,61.80
2018-01-18T09:39:45.049Z,61.90
2018-01-18T09:42:12.491Z,61.40
2018-01-18T09:44:39.940Z,61.20
2018-01-18T09:47:08.154Z,60.60
2018-01-18T09:49:35.602Z,60.70
2018-01-18T09:52:03.038Z,60.00
2018-01-18T09:54:31.227Z,60.20
2018-01-18T09:56:58.669Z,60.00
2018-01-18T09:59:26.875Z,60.10
2018-01-18T10:01:54.308Z,60.00
2018-01-18T10:04:21.791Z,60.00
2018-01-18T10:06:49.203Z,60.30
2018-01-18T10:09:16.649Z,59.70
2018-01-18T10:11:44.075Z,59.50
2018-01-18T10:14:11.520Z,59.30
2018-01-18T10:16:38.952Z,59.10
2018-01-18T10:19:06.388Z,59.30
2018-01-18T10:21:34.584Z,59.90
2018-01-18T10:24:02.040Z,59.80
2018-01-18T10:26:30.340Z,58.90
2018-01-18T10:28:57.747Z,58.90
2018-01-18T10:31:26.174Z,58.40
2018-01-18T10:33:53.631Z,58.40
2018-01-18T10:36:21.044Z,58.20
2018-01-18T10:38:49.476Z,57.80
2018-01-18T10:41:16.924Z,57.80
2018-01-18T10:43:44.332Z,57.30
2018-01-18T10:46:12.544Z,56.00
2018-01-18T10:48:40.057Z,55.90
2018-01-18T10:51:07.469Z,55.60
2018-01-18T10:53:34.873Z,54.80
2018-01-18T10:56:02.316Z,54.70
2018-01-18T10:58:29.739Z,54.20
2018-01-18T11:00:57.194Z,53.90
2018-01-18T11:03:24.652Z,53.80
2018-01-18T11:05:52.059Z,53.60
2018-01-18T11:08:20.284Z,53.90
2018-01-18T11:10:47.711Z,53.80
2018-01-18T11:13:15.165Z,54.00
2018-01-18T11:15:42.591Z,54.40
2018-01-18T11:18:10.079Z,54.90
2018-01-18T11:20:37.507Z,55.00
2018-01-18T11:23:04.956Z,55.20
2018-01-18T11:25:32.380Z,55.00
2018-01-18T11:27:59.842Z,55.10
2018-01-18T11:30:27.376Z,55.40
2018-01-18T11:32:55.026Z,56.10
2018-01-18T11:35:23.767Z,55.90
2018-01-18T11:37:51.214Z,55.70
2018-01-18T11:40:18.668Z,55.50
2018-01-18T11:42:46.120Z,55.60
2018-01-18T11:45:13.567Z,55.80
2018-01-18T11:47:41.031Z,56.10
2018-01-18T11:50:08.460Z,56.10
2018-01-18T11:52:36.029Z,55.50
2018-01-18T11:55:03.458Z,55.60
2018-01-18T11:57:30.896Z,55.60
2018-01-18T11:59:58.331Z,55.90
2018-01-18T12:02:25.775Z,56.20
2018-01-18T12:04:53.208Z,56.20
2018-01-18T12:07:20.697Z,55.80
2018-01-18T12:09:48.985Z,56.30
2018-01-18T12:12:16.419Z,56.30
2018-01-18T12:14:44.031Z,56.40
2018-01-18T12:17:11.484Z,56.20
2018-01-18T12:19:38.935Z,53.90
2018-01-18T12:22:06.380Z,52.40
2018-01-18T12:24:33.834Z,52.00
2018-01-18T12:27:01.280Z,52.00
2018-01-18T12:29:28.730Z,51.90
2018-01-18T12:31:56.184Z,50.50
2018-01-18T12:34:23.949Z,49.40
2018-01-18T12:36:51.460Z,48.50
2018-01-18T12:39:18.908Z,47.60
2018-01-18T12:41:46.344Z,47.00
2018-01-18T12:44:13.791Z,45.40
2018-01-18T12:46:41.232Z,44.50
2018-01-18T12:49:08.681Z,44.00
2018-01-18T12:51:36.092Z,42.80
2018-01-18T12:54:04.337Z,39.80
2018-01-18T12:56:31.789Z,39.10
2018-01-18T12:58:59.218Z,37.40
2018-01-18T13:01:26.673Z,36.00
2018-01-18T13:03:54.149Z,34.80
2018-01-18T13:06:21.585Z,34.60
2018-01-18T13:08:49.266Z,35.10
2018-01-18T13:11:16.722Z,36.20
2018-01-18T13:13:44.128Z,37.40
2018-01-18T13:16:12.337Z,37.10
2018-01-18T13:18:39.808Z,37.00
2018-01-18T13:21:07.265Z,37.00
2018-01-18T13:23:34.695Z,37.00
2018-01-18T13:26:02.124Z,36.00
2018-01-18T13:28:29.581Z,37.70
2018-01-18T13:30:57.072Z,39.40
2018-01-18T13:33:24.517Z,40.00
2018-01-18T13:35:51.957Z,39.50
2018-01-18T13:38:19.436Z,38.70
2018-01-18T13:40:46.920Z,37.10
2018-01-18T13:43:14.336Z,36.40
2018-01-18T13:45:41.780Z,35.20
2018-01-18T13:48:09.242Z,35.00
2018-01-18T13:50:36.695Z,35.10
2018-01-18T13:53:04.130Z,35.00
2018-01-18T13:55:31.580Z,36.10
2018-01-18T13:57:59.036Z,36.90
2018-01-18T14:00:26.474Z,38.50
2018-01-18T14:02:53.915Z,41.50
2018-01-18T14:05:21.455Z,43.10
2018-01-18T14:07:48.912Z,45.20
2018-01-18T14:10:16.357Z,46.40
2018-01-18T14:12:43.787Z,47.70
2018-01-18T14:15:11.314Z,48.40
2018-01-18T14:17:38.984Z,48.90
2018-01-18T14:20:06.437Z,49.40
2018-01-18T14:22:33.952Z,50.10
2018-01-18T14:25:01.659Z,50.60
2018-01-18T14:27:29.188Z,50.70
2018-01-18T14:29:56.661Z,51.20
2018-01-18T14:32:24.104Z,51.50
2018-01-18T14:34:51.601Z,51.90
2018-01-18T14:37:19.069Z,52.40
2018-01-18T14:39:46.525Z,52.50
2018-01-18T14:42:13.976Z,52.50
2018-01-18T14:44:41.427Z,52.60
2018-01-18T14:47:08.901Z,52.20
2018-01-18T14:49:36.364Z,51.80
2018-01-18T14:52:03.815Z,51.80
2018-01-18T14:54:31.271Z,52.00
2018-01-18T14:56:58.740Z,52.10
2018-01-18T14:59:26.199Z,52.00
2018-01-18T15:01:53.644Z,52.40
2018-01-18T15:04:21.083Z,52.30
2018-01-18T15:06:48.536Z,52.00
2018-01-18T15:09:15.992Z,52.60
2018-01-18T15:11:43.467Z,52.90
2018-01-18T15:14:10.946Z,53.60
2018-01-18T15:16:38.410Z,54.00
2018-01-18T15:19:06.611Z,54.30
2018-01-18T15:21:34.089Z,54.20
2018-01-18T15:24:01.569Z,54.30
2018-01-18T15:26:31.173Z,54.50
2018-01-18T15:28:58.667Z,54.70
2018-01-18T15:31:26.100Z,54.90
2018-01-18T15:33:53.544Z,55.10
2018-01-18T15:36:21.039Z,54.90
2018-01-18T15:38:49.265Z,55.40
2018-01-18T15:41:16.703Z,55.20
2018-01-18T15:43:44.178Z,55.30
2018-01-18T15:46:11.597Z,55.60
2018-01-18T15:48:39.038Z,55.60
2018-01-18T15:51:07.256Z,55.90
2018-01-18T15:53:34.679Z,56.40
2018-01-18T15:56:02.909Z,55.90
2018-01-18T15:58:30.357Z,55.80
2018-01-18T16:00:57.791Z,56.10
2018-01-18T16:03:25.247Z,56.20
2018-01-18T16:05:52.693Z,56.80
2018-01-18T16:08:20.178Z,57.10
2018-01-18T16:10:47.649Z,57.10
2018-01-18T16:13:15.076Z,56.90
2018-01-18T16:15:42.512Z,56.60
2018-01-18T16:18:09.939Z,56.40
2018-01-18T16:20:37.469Z,56.40
2018-01-18T16:23:04.852Z,56.80
2018-01-18T16:25:32.287Z,56.20
2018-01-18T16:27:59.741Z,56.30
2018-01-18T16:30:27.169Z,56.30
2018-01-18T16:32:54.613Z,56.40
2018-01-18T16:35:22.819Z,58.60
2018-01-18T16:37:50.260Z,58.60
2018-01-18T16:40:17.691Z,59.20
2018-01-18T16:42:45.155Z,60.80
2018-01-18T16:45:12.589Z,62.00
2018-01-18T16:47:40.021Z,61.20
2018-01-18T16:50:07.480Z,60.90
2018-01-18T16:52:34.924Z,60.70
2018-01-18T16:55:02.344Z,60.10
2018-01-18T16:57:29.794Z,60.20
2018-01-18T16:59:58.000Z,60.00
2018-01-18T17:02:25.424Z,59.90
2018-01-18T17:04:52.918Z,60.00
2018-01-18T17:07:20.361Z,59.80
2018-01-18T17:09:47.809Z,59.70
2018-01-18T17:12:15.272Z,59.10
2018-01-18T17:14:42.750Z,59.10
2018-01-18T17:17:10.217Z,58.80
2018-01-18T17:19:37.657Z,58.80
2018-01-18T17:22:05.086Z,58.90
2018-01-18T17:24:32.532Z,59.00
2018-01-18T17:27:00.025Z,58.80
2018-01-18T17:29:27.443Z,59.10
2018-01-18T17:31:54.911Z,59.10
2018-01-18T17:34:22.333Z,58.90
2018-01-18T17:36:49.856Z,58.50
2018-01-18T17:39:17.271Z,58.20
2018-01-18T17:41:44.694Z,58.20
2018-01-18T17:44:12.147Z,58.80
2018-01-18T17:46:39.587Z,59.00
2018-01-18T17:49:07.131Z,66.10
2018-01-18T17:51:34.551Z,73.00
2018-01-18T17:54:02.004Z,79.90
2018-01-18T17:56:29.447Z,80.90
2018-01-18T17:58:56.919Z,82.70
2018-01-18T18:01:24.343Z,86.20
2018-01-18T18:03:51.774Z,85.50
2018-01-18T18:06:19.216Z,86.80
2018-01-18T18:08:46.635Z,86.70
2018-01-18T18:11:14.258Z,88.10
2018-01-18T18:13:41.680Z,87.00
2018-01-18T18:16:09.136Z,86.40
2018-01-18T18:18:36.575Z,88.10
2018-01-18T18:21:03.996Z,86.80
2018-01-18T18:23:31.452Z,86.00
2018-01-18T18:25:58.888Z,85.90
2018-01-18T18:28:26.359Z,84.90
2018-01-18T18:30:53.801Z,85.40
2018-01-18T18:33:21.336Z,85.40
2018-01-18T18:35:49.548Z,83.80
2018-01-18T18:38:16.986Z,83.60
2018-01-18T18:40:44.418Z,84.20
2018-01-18T18:43:12.615Z,84.00
2018-01-18T18:45:40.097Z,84.00
2018-01-18T18:48:07.540Z,83.80
2018-01-18T18:50:34.984Z,84.00
2018-01-18T18:53:02.432Z,85.30
2018-01-18T18:55:30.633Z,85.70
2018-01-18T18:57:58.071Z,85.60
2018-01-18T19:00:25.504Z,84.90
2018-01-18T19:02:52.956Z,85.70
2018-01-18T19:05:20.437Z,85.90
2018-01-18T19:07:47.880Z,86.40
2018-01-18T19:10:15.333Z,86.90
2018-01-18T19:12:42.760Z,87.90
2018-01-18T19:15:10.207Z,87.90
2018-01-18T19:17:37.720Z,87.80
2018-01-18T19:20:05.144Z,88.40
2018-01-18T19:22:32.594Z,89.20
2018-01-18T19:25:00.061Z,89.50
2018-01-18T19:27:27.532Z,90.00
2018-01-18T19:29:54.971Z,90.10
2018-01-18T19:32:22.413Z,90.50
2018-01-18T19:34:49.873Z,91.20
2018-01-18T19:37:17.323Z,94.20
2018-01-18T19:39:44.819Z,93.30
2018-01-18T19:42:12.260Z,93.50
2018-01-18T19:44:39.693Z,93.80
2018-01-18T19:47:07.152Z,93.90
2018-01-18T19:49:34.596Z,94.20
2018-01-18T19:52:02.903Z,95.10
2018-01-18T19:54:30.333Z,94.60
2018-01-18T19:56:57.784Z,95.20
2018-01-18T19:59:25.284Z,95.80
2018-01-18T20:01:52.655Z,96.30
2018-01-18T20:04:20.895Z,96.30
2018-01-18T20:06:48.348Z,96.30
2018-01-18T20:09:15.785Z,95.90
2018-01-18T20:11:43.248Z,95.60
2018-01-18T20:14:10.695Z,95.80
2018-01-18T20:16:38.140Z,95.90
2018-01-18T20:19:05.602Z,96.00
2018-01-18T20:21:33.152Z,96.20
2018-01-18T20:24:00.579Z,96.30
2018-01-18T20:26:28.020Z,96.50
2018-01-18T20:28:55.464Z,96.80
2018-01-18T20:31:22.912Z,96.90
2018-01-18T20:33:50.364Z,96.80
2018-01-18T20:36:17.840Z,96.80
2018-01-18T20:38:45.281Z,96.90
2018-01-18T20:41:12.742Z,97.20
2018-01-18T20:43:40.257Z,97.10
2018-01-18T20:46:07.720Z,96.90
2018-01-18T20:48:35.192Z,96.60
2018-01-18T20:51:02.656Z,96.80
2018-01-18T20:53:30.117Z,96.70
2018-01-18T20:55:57.573Z,96.70
2018-01-18T20:58:25.041Z,96.80
2018-01-18T21:00:52.476Z,96.60
2018-01-18T21:03:19.944Z,96.80
2018-01-18T21:05:47.387Z,96.70
2018-01-18T21:08:14.861Z,96.70
2018-01-18T21:10:42.344Z,96.70
2018-01-18T21:13:09.783Z,96.80
2018-01-18T21:15:37.236Z,96.80
2018-01-18T21:18:04.767Z,96.90
2018-01-18T21:20:32.248Z,96.70
2018-01-18T21:22:59.708Z,96.30
2018-01-18T21:25:27.135Z,96.30
2018-01-18T21:27:54.580Z,96.80
2018-01-18T21:30:22.803Z,96.60
2018-01-18T21:32:50.259Z,96.50
2018-01-18T21:35:17.724Z,96.40
2018-01-18T21:37:45.192Z,96.20
2018-01-18T21:40:12.647Z,96.60
2018-01-18T21:42:40.104Z,96.40
2018-01-18T21:45:07.558Z,96.10
2018-01-18T21:47:35.018Z,95.90
2018-01-18T21:50:02.534Z,95.60
2018-01-18T21:52:30.005Z,95.50
2018-01-18T21:54:57.435Z,95.20
2018-01-18T21:57:24.876Z,94.90
2018-01-18T21:59:52.312Z,94.50
2018-01-18T22:02:19.759Z,94.60
2018-01-18T22:04:47.201Z,94.00
2018-01-18T22:07:14.660Z,94.70
2018-01-18T22:09:42.130Z,95.10
2018-01-18T22:12:09.637Z,95.10
2018-01-18T22:14:37.072Z,95.10
2018-01-18T22:17:04.528Z,94.90
2018-01-18T22:19:31.969Z,95.00
2018-01-18T22:21:59.409Z,94.70
2018-01-18T22:24:26.883Z,95.00
2018-01-18T22:26:54.336Z,94.80
2018-01-18T22:29:21.788Z,94.40
2018-01-18T22:31:49.228Z,94.70
2018-01-18T22:34:16.781Z,94.50
2018-01-18T22:36:44.232Z,94.30
2018-01-18T22:39:11.685Z,94.50
2018-01-18T22:41:39.159Z,94.80
2018-01-18T22:44:06.609Z,95.00
2018-01-18T22:46:34.092Z,94.50
2018-01-18T22:49:01.541Z,94.80
2018-01-18T22:51:28.993Z,94.80
2018-01-18T22:53:56.459Z,94.90
2018-01-18T22:56:23.916Z,94.80
2018-01-18T22:58:51.359Z,94.80
2018-01-18T23:01:18.839Z,94.70
2018-01-18T23:03:46.292Z,94.70
2018-01-18T23:06:13.732Z,94.30
2018-01-18T23:08:41.184Z,94.50
2018-01-18T23:11:08.690Z,94.10
2018-01-18T23:13:36.100Z,93.90
2018-01-18T23:16:03.558Z,94.00
2018-01-18T23:18:31.016Z,94.20
2018-01-18T23:20:58.472Z,93.90
2018-01-18T23:23:25.933Z,93.50
2018-01-18T23:25:54.160Z,93.30
2018-01-18T23:28:21.612Z,92.90
2018-01-18T23:30:49.815Z,93.30
2018-01-18T23:33:17.255Z,93.30
2018-01-18T23:35:44.724Z,93.00
2018-01-18T23:38:12.188Z,93.60
2018-01-18T23:40:39.641Z,93.60
2018-01-18T23:43:07.079Z,93.40
2018-01-18T23:45:34.536Z,93.60
2018-01-18T23:48:01.990Z,93.20
2018-01-18T23:50:29.432Z,93.50
2018-01-18T23:52:56.874Z,93.70
2018-01-18T23:55:24.335Z,93.90
2018-01-18T23:57:51.779Z,93.40
